createdAt,value
2023-01-07T00:01:34.080Z,26.25
2023-01-07T00:04:02.067Z,26.00
2023-01-07T00:06:33.269Z,20.50
2023-01-07T00:09:01.044Z,24.75
2023-01-07T00:11:36.799Z,25.25
2023-01-07T00:14:05.454Z,26.25
2023-01-07T00:16:33.745Z,24.50
2023-01-07T00:19:03.499Z,90.25
2023-01-07T00:21:31.022Z,146.50
2023-01-07T00:24:03.643Z,183.75
2023-01-07T00:26:33.445Z,19.00
2023-01-07T00:29:00.413Z,21.00
2023-01-07T00:31:33.455Z,20.50
2023-01-07T00:34:00.814Z,100.75
2023-01-07T00:36:32.161Z,209.25
2023-01-07T00:39:00.949Z,220.00
2023-01-07T00:41:28.026Z,152.00
2023-01-07T00:43:58.689Z,159.50
2023-01-07T00:46:25.873Z,13.00
2023-01-07T00:48:52.673Z,14.75
2023-01-07T00:51:19.967Z,15.00
2023-01-07T00:53:47.532Z,17.50
2023-01-07T00:56:18.014Z,20.25
2023-01-07T00:58:45.223Z,42.00
2023-01-07T01:01:12.491Z,25.25
2023-01-07T01:03:40.169Z,35.25
2023-01-07T01:06:10.844Z,24.00
2023-01-07T01:08:37.856Z,20.00
2023-01-07T01:11:06.863Z,162.50
2023-01-07T01:13:34.554Z,194.25
2023-01-07T01:16:01.683Z,160.50
2023-01-07T01:18:28.555Z,106.75
2023-01-07T01:20:55.458Z,23.75
2023-01-07T01:23:22.173Z,28.25
2023-01-07T01:25:48.813Z,33.50
2023-01-07T01:28:15.530Z,19.00
2023-01-07T01:30:42.227Z,16.00
2023-01-07T01:33:09.686Z,11.00
2023-01-07T01:35:41.520Z,16.50
2023-01-07T01:38:09.021Z,18.25
2023-01-07T01:40:35.753Z,14.25
2023-01-07T01:43:04.328Z,12.25
2023-01-07T01:45:31.404Z,16.50
2023-01-07T01:48:04.849Z,12.25
2023-01-07T01:50:38.552Z,22.75
2023-01-07T01:53:10.631Z,142.75
2023-01-07T01:55:49.212Z,210.75
2023-01-07T01:58:24.263Z,229.25
2023-01-07T02:00:51.864Z,65.50
2023-01-07T02:03:22.968Z,42.00
2023-01-07T02:05:50.128Z,14.75
2023-01-07T02:08:22.053Z,41.75
2023-01-07T02:11:16.680Z,39.00
2023-01-07T02:13:55.420Z,15.50
2023-01-07T02:16:27.978Z,20.50
2023-01-07T02:18:56.073Z,20.75
2023-01-07T02:21:22.695Z,15.75
2023-01-07T02:24:09.263Z,14.75
2023-01-07T02:27:05.875Z,18.50
2023-01-07T02:30:15.696Z,29.00
2023-01-07T02:33:05.284Z,22.50
2023-01-07T02:36:06.600Z,27.50
2023-01-07T02:38:52.122Z,24.50
2023-01-07T02:41:43.793Z,9.00
2023-01-07T02:44:30.275Z,23.75
2023-01-07T02:47:21.247Z,23.00
2023-01-07T02:49:48.577Z,21.00
2023-01-07T02:52:26.511Z,17.50
2023-01-07T02:55:17.851Z,7.00
2023-01-07T02:58:09.162Z,14.00
2023-01-07T03:00:35.985Z,16.00
2023-01-07T03:03:34.621Z,13.00
2023-01-07T03:06:38.578Z,62.50
2023-01-07T03:09:21.746Z,14.50
2023-01-07T03:11:58.232Z,12.50
2023-01-07T03:14:46.255Z,11.00
2023-01-07T03:17:21.650Z,10.25
2023-01-07T03:19:54.844Z,13.00
2023-01-07T03:22:25.379Z,16.00
2023-01-07T03:24:56.352Z,10.50
2023-01-07T03:27:27.063Z,15.00
2023-01-07T03:29:56.130Z,5.00
2023-01-07T03:32:39.556Z,10.75
2023-01-07T03:35:07.332Z,13.50
2023-01-07T03:37:34.610Z,13.75
2023-01-07T03:40:09.818Z,11.75
2023-01-07T03:42:40.899Z,13.25
2023-01-07T03:45:25.542Z,13.00
2023-01-07T03:47:56.143Z,11.75
2023-01-07T03:50:25.450Z,10.75
2023-01-07T03:52:53.260Z,11.00
2023-01-07T03:55:21.722Z,11.50
2023-01-07T03:57:50.627Z,15.00
2023-01-07T04:00:17.858Z,13.25
2023-01-07T04:02:52.547Z,11.00
2023-01-07T04:05:23.680Z,9.50
2023-01-07T04:07:50.411Z,14.25
2023-01-07T04:10:18.096Z,17.75
2023-01-07T04:12:45.144Z,22.00
2023-01-07T04:15:12.159Z,21.00
2023-01-07T04:17:38.971Z,24.50
2023-01-07T04:20:07.951Z,36.00
2023-01-07T04:22:35.602Z,31.50
2023-01-07T04:25:02.313Z,8.50
2023-01-07T04:27:31.057Z,256.75
2023-01-07T04:29:57.958Z,248.00
2023-01-07T04:32:24.705Z,96.75
2023-01-07T04:34:51.478Z,171.75
2023-01-07T04:37:18.519Z,55.00
2023-01-07T04:39:45.446Z,61.50
2023-01-07T04:42:12.619Z,102.50
2023-01-07T04:44:39.808Z,18.00
2023-01-07T04:47:06.513Z,17.25
2023-01-07T04:49:33.171Z,10.25
2023-01-07T04:52:00.031Z,10.00
2023-01-07T04:54:27.045Z,11.00
2023-01-07T04:56:53.842Z,14.75
2023-01-07T04:59:20.706Z,9.25
2023-01-07T05:01:48.010Z,8.50
2023-01-07T05:04:14.919Z,13.75
2023-01-07T05:06:42.447Z,13.75
2023-01-07T05:09:11.526Z,14.50
2023-01-07T05:11:38.357Z,23.75
2023-01-07T05:14:05.165Z,25.25
2023-01-07T05:16:33.619Z,19.50
2023-01-07T05:19:05.054Z,17.25
2023-01-07T05:21:36.176Z,15.25
2023-01-07T05:24:03.855Z,31.25
2023-01-07T05:26:30.509Z,36.50
2023-01-07T05:28:57.754Z,40.00
2023-01-07T05:31:24.666Z,65.25
2023-01-07T05:33:52.172Z,19.00
2023-01-07T05:36:18.892Z,17.25
2023-01-07T05:38:45.765Z,19.75
2023-01-07T05:41:12.946Z,44.75
2023-01-07T05:43:39.670Z,23.00
2023-01-07T05:46:06.460Z,17.75
2023-01-07T05:48:33.187Z,12.50
2023-01-07T05:51:00.153Z,14.00
2023-01-07T05:53:26.914Z,14.75
2023-01-07T05:55:59.911Z,24.00
2023-01-07T05:58:28.017Z,41.75
2023-01-07T06:00:55.565Z,19.00
2023-01-07T06:03:22.551Z,9.75
2023-01-07T06:05:49.323Z,18.00
2023-01-07T06:08:16.336Z,18.50
2023-01-07T06:10:44.342Z,18.00
2023-01-07T06:13:11.171Z,15.25
2023-01-07T06:15:40.229Z,16.50
2023-01-07T06:18:07.055Z,17.25
2023-01-07T06:20:34.752Z,14.00
2023-01-07T06:23:04.404Z,20.75
2023-01-07T06:25:38.431Z,20.00
2023-01-07T06:28:05.291Z,17.75
2023-01-07T06:30:31.933Z,14.00
2023-01-07T06:32:58.650Z,22.75
2023-01-07T06:35:25.387Z,14.00
2023-01-07T06:37:52.069Z,17.25
2023-01-07T06:40:20.689Z,18.00
2023-01-07T06:42:47.454Z,18.00
2023-01-07T06:45:14.168Z,18.00
2023-01-07T06:47:41.288Z,15.00
2023-01-07T06:50:08.521Z,14.25
2023-01-07T06:52:44.020Z,19.25
2023-01-07T06:55:14.488Z,24.00
2023-01-07T06:57:41.402Z,21.25
2023-01-07T07:00:08.770Z,16.00
2023-01-07T07:02:35.640Z,17.50
2023-01-07T07:05:05.756Z,16.00
2023-01-07T07:07:37.381Z,16.00
2023-01-07T07:10:07.566Z,18.50
2023-01-07T07:12:35.622Z,20.00
2023-01-07T07:15:02.390Z,21.00
2023-01-07T07:17:29.176Z,19.25
2023-01-07T07:19:56.008Z,18.25
2023-01-07T07:22:22.784Z,17.50
2023-01-07T07:24:49.549Z,12.67
2023-01-07T07:27:16.298Z,13.25
2023-01-07T07:29:43.093Z,17.25
2023-01-07T07:32:09.843Z,17.00
2023-01-07T07:34:36.699Z,18.00
2023-01-07T07:37:05.578Z,12.75
2023-01-07T07:39:32.344Z,16.67
2023-01-07T07:42:01.795Z,725.00
2023-01-07T07:44:29.280Z,694.67
2023-01-07T07:46:55.988Z,642.40
2023-01-07T07:49:22.819Z,652.80
2023-01-07T07:51:49.503Z,627.20
2023-01-07T07:54:16.531Z,629.60
2023-01-07T07:56:43.279Z,592.00
2023-01-07T07:59:10.222Z,565.60
2023-01-07T08:01:37.541Z,528.80
2023-01-07T08:04:04.452Z,497.60
2023-01-07T08:06:31.277Z,490.33
2023-01-07T08:08:57.992Z,476.00
2023-01-07T08:11:24.690Z,482.40
2023-01-07T08:13:51.335Z,500.00
2023-01-07T08:16:18.107Z,521.00
2023-01-07T08:18:44.912Z,499.60
2023-01-07T08:21:11.578Z,521.80
2023-01-07T08:23:38.258Z,522.20
2023-01-07T08:26:05.080Z,509.80
2023-01-07T08:28:32.815Z,588.40
2023-01-07T08:31:04.433Z,559.00
2023-01-07T08:33:34.137Z,525.80
2023-01-07T08:36:00.828Z,496.20
2023-01-07T08:38:31.469Z,527.25
2023-01-07T08:40:59.576Z,498.80
2023-01-07T08:43:26.304Z,494.60
2023-01-07T08:45:53.941Z,491.80
2023-01-07T08:48:21.461Z,477.00
2023-01-07T08:50:53.102Z,470.67
2023-01-07T08:53:20.966Z,524.60
2023-01-07T08:55:47.762Z,499.17
2023-01-07T08:58:14.685Z,471.83
2023-01-07T09:00:41.950Z,471.80
2023-01-07T09:03:08.766Z,377.20
2023-01-07T09:05:35.744Z,411.25
2023-01-07T09:08:03.722Z,415.25
2023-01-07T09:10:31.184Z,395.80
2023-01-07T09:12:58.271Z,369.40
2023-01-07T09:15:25.325Z,342.25
2023-01-07T09:17:52.106Z,384.00
2023-01-07T09:20:19.263Z,345.60
2023-01-07T09:22:46.307Z,423.40
2023-01-07T09:25:13.823Z,427.60
2023-01-07T09:27:42.743Z,420.40
2023-01-07T09:30:09.861Z,436.80
2023-01-07T09:32:36.710Z,431.40
2023-01-07T09:35:04.619Z,422.00
2023-01-07T09:37:31.501Z,401.00
2023-01-07T09:40:00.371Z,360.60
2023-01-07T09:42:48.311Z,312.40
2023-01-07T09:45:23.390Z,317.00
2023-01-07T09:47:53.988Z,359.00
2023-01-07T09:50:42.598Z,335.50
2023-01-07T09:53:22.691Z,310.75
2023-01-07T09:56:11.134Z,338.00
2023-01-07T09:58:42.901Z,299.80
2023-01-07T10:01:19.809Z,284.25
2023-01-07T10:03:51.642Z,281.25
2023-01-07T10:06:51.386Z,262.25
2023-01-07T10:09:53.225Z,238.75
2023-01-07T10:12:22.643Z,216.25
2023-01-07T10:14:49.298Z,230.25
2023-01-07T10:17:34.909Z,193.75
2023-01-07T10:20:23.009Z,194.75
2023-01-07T10:22:55.087Z,176.50
2023-01-07T10:25:27.897Z,178.50
2023-01-07T10:28:02.124Z,201.00
2023-01-07T10:30:34.609Z,187.00
2023-01-07T10:33:26.961Z,180.50
2023-01-07T10:36:01.895Z,186.50
2023-01-07T10:38:34.201Z,183.00
2023-01-07T10:41:08.103Z,171.75
2023-01-07T10:43:53.443Z,165.75
2023-01-07T10:46:43.503Z,169.50
2023-01-07T10:49:36.642Z,162.00
2023-01-07T10:52:03.281Z,149.00
2023-01-07T10:54:38.922Z,133.50
2023-01-07T10:57:24.503Z,138.25
2023-01-07T10:59:54.481Z,127.25
2023-01-07T11:02:27.183Z,142.00
2023-01-07T11:04:56.128Z,118.75
2023-01-07T11:07:43.478Z,102.50
2023-01-07T11:10:15.991Z,106.00
2023-01-07T11:13:08.247Z,109.75
2023-01-07T11:15:48.999Z,101.00
2023-01-07T11:18:18.783Z,100.50
2023-01-07T11:20:47.100Z,93.50
2023-01-07T11:23:30.845Z,92.25
2023-01-07T11:26:25.227Z,89.50
2023-01-07T11:29:01.413Z,86.75
2023-01-07T11:31:54.897Z,85.25
2023-01-07T11:34:32.099Z,60.75
2023-01-07T11:36:59.120Z,58.75
2023-01-07T11:39:29.746Z,63.25
2023-01-07T11:42:26.113Z,63.00
2023-01-07T11:45:11.737Z,56.00
2023-01-07T11:47:44.396Z,53.75
2023-01-07T11:50:22.576Z,56.00
2023-01-07T11:53:02.349Z,55.25
2023-01-07T11:55:30.035Z,52.50
2023-01-07T11:58:28.667Z,54.00
2023-01-07T12:00:44.498Z,52.00
2023-01-07T12:03:13.175Z,51.25
2023-01-07T12:05:41.815Z,60.00
2023-01-07T12:08:20.501Z,56.75
2023-01-07T12:10:55.571Z,64.00
2023-01-07T12:13:27.453Z,51.75
2023-01-07T12:15:58.907Z,49.00
2023-01-07T12:19:01.109Z,53.00
2023-01-07T12:21:47.539Z,47.00
2023-01-07T12:24:17.085Z,42.25
2023-01-07T12:26:53.763Z,43.50
2023-01-07T12:29:39.231Z,44.50
2023-01-07T12:32:12.687Z,42.00
2023-01-07T12:34:47.565Z,45.00
2023-01-07T12:37:38.767Z,43.75
2023-01-07T12:40:17.833Z,42.25
2023-01-07T12:42:55.684Z,46.50
2023-01-07T12:45:36.450Z,48.00
2023-01-07T12:48:11.277Z,49.25
2023-01-07T12:50:46.613Z,45.00
2023-01-07T12:53:19.288Z,46.25
2023-01-07T12:55:53.956Z,44.00
2023-01-07T12:58:49.428Z,41.75
2023-01-07T13:01:30.559Z,47.00
2023-01-07T13:04:34.915Z,48.25
2023-01-07T13:07:14.928Z,44.25
2023-01-07T13:09:41.557Z,50.00
2023-01-07T13:12:43.514Z,29.00
2023-01-07T13:15:21.863Z,25.33
2023-01-07T13:18:12.909Z,25.67
2023-01-07T13:20:46.501Z,30.33
2023-01-07T13:23:25.753Z,37.67
2023-01-07T13:26:12.948Z,26.33
2023-01-07T13:28:39.567Z,25.67
2023-01-07T13:31:29.384Z,33.67
2023-01-07T13:34:44.477Z,43.50
2023-01-07T13:37:33.917Z,49.75
2023-01-07T13:40:26.544Z,31.33
2023-01-07T13:43:06.206Z,31.00
2023-01-07T13:45:36.440Z,29.00
2023-01-07T13:48:06.276Z,24.67
2023-01-07T13:50:44.817Z,32.00
2023-01-07T13:53:14.636Z,31.67
2023-01-07T13:55:43.953Z,32.00
2023-01-07T13:58:28.985Z,28.33
2023-01-07T14:01:04.901Z,27.00
2023-01-07T14:03:34.754Z,25.33
2023-01-07T14:06:19.965Z,27.33
2023-01-07T14:09:07.808Z,32.00
2023-01-07T14:11:35.376Z,28.33
2023-01-07T14:14:05.405Z,28.00
2023-01-07T14:16:52.665Z,26.33
2023-01-07T14:19:19.374Z,31.33
2023-01-07T14:21:55.315Z,31.00
2023-01-07T14:24:43.835Z,25.00
2023-01-07T14:27:19.389Z,36.67
2023-01-07T14:29:48.509Z,42.00
2023-01-07T14:32:24.300Z,40.50
2023-01-07T14:34:56.756Z,43.00
2023-01-07T14:37:38.748Z,43.00
2023-01-07T14:40:29.170Z,48.00
2023-01-07T14:43:03.222Z,47.50
2023-01-07T14:45:42.068Z,54.25
2023-01-07T14:48:08.727Z,49.00
2023-01-07T14:50:51.309Z,44.50
2023-01-07T14:53:36.080Z,42.75
2023-01-07T14:56:08.886Z,46.00
2023-01-07T14:58:59.474Z,51.25
2023-01-07T15:02:02.698Z,54.00
2023-01-07T15:04:59.234Z,56.00
2023-01-07T15:07:30.127Z,56.00
2023-01-07T15:10:20.765Z,57.00
2023-01-07T15:13:12.957Z,340.40
2023-01-07T15:15:59.771Z,61.00
2023-01-07T15:18:28.085Z,48.00
2023-01-07T15:21:23.168Z,46.75
2023-01-07T15:24:05.901Z,131.75
2023-01-07T15:26:37.145Z,51.00
2023-01-07T15:29:27.940Z,47.50
2023-01-07T15:32:10.081Z,53.25
2023-01-07T15:34:38.787Z,51.25
2023-01-07T15:37:07.232Z,53.50
2023-01-07T15:39:40.840Z,50.75
2023-01-07T15:42:15.403Z,60.50
2023-01-07T15:44:42.456Z,104.50
2023-01-07T15:47:40.987Z,71.25
2023-01-07T15:50:26.788Z,68.00
2023-01-07T15:52:56.500Z,74.25
2023-01-07T15:55:30.611Z,73.50
2023-01-07T15:58:02.406Z,76.50
2023-01-07T16:00:29.690Z,70.75
2023-01-07T16:02:57.599Z,71.25
2023-01-07T16:05:26.446Z,61.50
2023-01-07T16:08:01.173Z,72.75
2023-01-07T16:10:29.541Z,55.00
2023-01-07T16:12:59.100Z,51.75
2023-01-07T16:15:34.172Z,53.25
2023-01-07T16:18:18.788Z,54.00
2023-01-07T16:20:56.281Z,54.00
2023-01-07T16:23:29.105Z,60.00
2023-01-07T16:26:07.832Z,53.00
2023-01-07T16:28:57.486Z,60.00
2023-01-07T16:31:27.787Z,52.00
2023-01-07T16:34:16.254Z,52.00
2023-01-07T16:36:44.724Z,52.00
2023-01-07T16:39:21.176Z,54.00
2023-01-07T16:41:48.375Z,61.25
2023-01-07T16:44:36.470Z,68.25
2023-01-07T16:47:21.087Z,101.25
2023-01-07T16:50:03.618Z,160.75
2023-01-07T16:52:33.526Z,219.75
2023-01-07T16:55:00.359Z,275.00
2023-01-07T16:57:40.206Z,325.25
2023-01-07T17:00:17.507Z,323.75
2023-01-07T17:02:53.360Z,289.00
2023-01-07T17:05:24.257Z,340.60
2023-01-07T17:07:58.254Z,317.00
2023-01-07T17:10:30.476Z,315.75
2023-01-07T17:13:07.191Z,300.00
2023-01-07T17:15:34.364Z,251.00
2023-01-07T17:18:13.228Z,223.25
2023-01-07T17:20:50.991Z,207.00
2023-01-07T17:23:27.018Z,197.25
2023-01-07T17:26:08.806Z,197.25
2023-01-07T17:28:46.722Z,207.25
2023-01-07T17:31:13.543Z,171.50
2023-01-07T17:33:41.624Z,151.75
2023-01-07T17:36:16.966Z,168.25
2023-01-07T17:38:44.129Z,176.75
2023-01-07T17:41:40.589Z,175.00
2023-01-07T17:44:11.492Z,184.75
2023-01-07T17:46:41.840Z,195.75
2023-01-07T17:49:12.336Z,174.75
2023-01-07T17:51:54.734Z,180.75
2023-01-07T17:54:25.783Z,155.25
2023-01-07T17:57:00.118Z,133.75
2023-01-07T17:59:32.890Z,144.50
2023-01-07T18:02:19.698Z,148.50
2023-01-07T18:04:49.324Z,130.75
2023-01-07T18:07:16.776Z,142.25
2023-01-07T18:09:48.458Z,130.25
2023-01-07T18:12:31.498Z,103.75
2023-01-07T18:15:03.069Z,86.50
2023-01-07T18:17:30.295Z,96.00
2023-01-07T18:19:57.413Z,87.50
2023-01-07T18:22:26.269Z,91.25
2023-01-07T18:25:05.763Z,92.00
2023-01-07T18:29:36.113Z,67.38
2023-01-07T18:32:14.380Z,67.00
2023-01-07T18:34:45.852Z,80.00
2023-01-07T18:37:54.217Z,74.38
2023-01-07T18:40:37.466Z,78.00
2023-01-07T18:46:56.992Z,74.20
2023-01-07T18:49:25.857Z,82.67
2023-01-07T18:51:54.804Z,86.33
2023-01-07T18:54:23.724Z,87.33
2023-01-07T18:56:51.513Z,81.00
2023-01-07T18:59:20.691Z,80.00
2023-01-07T19:01:49.891Z,77.33
2023-01-07T19:04:24.310Z,108.25
2023-01-07T19:06:54.130Z,93.00
2023-01-07T19:09:23.348Z,95.67
2023-01-07T19:11:58.153Z,80.33
2023-01-07T19:14:28.827Z,69.50
2023-01-07T19:16:58.971Z,62.00
2023-01-07T19:19:32.028Z,61.50
2023-01-07T19:22:02.531Z,64.00
2023-01-07T19:24:30.633Z,63.00
2023-01-07T19:26:59.449Z,64.00
2023-01-07T19:29:27.494Z,63.00
2023-01-07T19:31:56.455Z,66.00
2023-01-07T19:34:25.384Z,78.33
2023-01-07T19:36:54.184Z,79.00
2023-01-07T19:39:23.706Z,70.00
2023-01-07T19:41:56.201Z,68.67
2023-01-07T19:44:24.421Z,68.50
2023-01-07T19:46:52.496Z,65.00
2023-01-07T19:49:23.112Z,70.00
2023-01-07T19:54:28.457Z,86.50
